Martí Giménez

Recruteur - Real Sociedad
13 Févr 2028
Dimanche
Processus

Personnalité

Adaptabilité (13) Ambition (8) Controverse (1) Loyauté (4) Pression (4) Professionnalisme (16) Sportivité (5) Tempérament (14)

Profil

Style d'entraînement Démocratique
Diplôme Continental B
Détermination 7
Gestion des joueurs 14
Motivation 9
Discipline 11
Satisfaction professionnelle
100%
Fatigue
0%
Rôle Recruteur
Salaire 107.7K p/s
Contrat 14.03.2029

Performance

Comportement Bon
Efficacité de l'entraînement
59%
Développement des joueurs
70%
Prévention des blessures
50%
Mise en place tactique
75%

Événements récents

A participé à une réunion de recrutement maintenant
A participé à une réunion de recrutement 7j
A observé un match 7j
A participé à une réunion de recrutement 14j
A évalué un joueur 14j
A observé un match 14j
A présenté un dossier au conseil 21j
A observé un match 21j

Suivi en cours

135
Joueur Club Statut Capacité Confiance Observé Dernière observation Dernier vote
Josh King Newcastle United Actif 144 / 150 40% 1 25.01.2028 -
Alex Verón Vélez Actif 127 / 113 40% 1 25.01.2028 -
Kauã Elias Shakhtar Actif 140 / 149 40% 1 18.01.2028 -
Lamin Sillah Exeter City Actif 100 / 99 40% 1 18.01.2028 -
Sam Proctor Salford City Négociation 119 / 130 40% 1 06.01.2028 -
Lisandro Tejada San Martín SJ Actif 110 / 106 40% 1 06.01.2028 -
Iván Romero Levante Actif 133 / 147 58% 1 03.01.2028 -
Tiziano Delias Sarmiento Actif 85 / 84 40% 2 01.01.2028 -
Hassan Beja AFC Leopards Actif 86 / 84 40% 1 31.08.2027 -
Ezekiel Kwame Alladoh Philadelphia Union Actif 104 / 124 40% 1 23.08.2027 -
Darlvin Yeboah Bechem United Actif 93 / 101 40% 1 23.08.2027 -
Assane Diao Como Actif 149 / 155 40% 5 29.05.2027 -
Jan Bürger Northampton Town Actif 116 / 119 40% 2 29.05.2027 -
Gonçalo Ribeiro Porto Actif 90 / 93 40% 1 29.05.2027 -
Ivan Giraldo Valencia Actif 108 / 124 40% 3 27.05.2027 -
Nana Nuhu WAFA Actif 85 / 101 40% 1 26.05.2027 -
César Bravo Barranquilla Actif 89 / 93 40% 1 23.05.2027 -
David Fernández Unión de Santa Fe Actif 80 / 102 40% 1 21.05.2027 -
Victor Froholdt Porto Actif 157 / 156 40% 1 20.05.2027 -
Leo Castledine Middlesbrough Actif 126 / 134 40% 1 18.05.2027 -
Yael Padilla Tijuana Actif 103 / 108 40% 1 13.05.2027 -
Jorrel Hato Chelsea Actif 147 / 155 40% 1 13.05.2027 -
Ignacio Abarza Huracán Actif 74 / 95 40% 1 13.05.2027 -
Tomás Chetelain Estudiantes Actif 92 / 89 40% 1 10.05.2027 -
Agustín Albrini Independiente Rivadavia Actif 83 / 91 40% 1 10.05.2027 -
Jenson Jones Walsall Actif 87 / 100 40% 1 07.05.2027 -
Lautaro Martínez Racing Club Actif 85 / 92 40% 1 06.05.2027 -
Jakub Badžgoň MSK Zilina Actif 106 / 100 40% 1 06.05.2027 -
Lucas Høgsberg RC Strasbourg Actif 137 / 147 40% 3 04.05.2027 -
Toni Tamarit Alverca Actif 110 / 114 40% 1 03.05.2027 -
Zane Albarus Shrewsbury Town Actif 102 / 91 40% 1 02.05.2027 -
Joaquín Giudice Platense Actif 82 / 99 40% 1 30.04.2027 -
Riley Owen Stevenage Actif 96 / 105 40% 1 30.04.2027 -
Ollie Scarles West Ham United Actif 123 / 142 40% 2 29.04.2027 -
Araphat Mohammed Ashanti Gold Actif 105 / 103 40% 1 29.04.2027 -
Salvador Blopá Sporting CP Actif 107 / 115 40% 1 28.04.2027 -
Enzo Gramajo Vélez Actif 90 / 85 40% 1 22.04.2027 -
Sindre Walle Egeli Udinese Actif 124 / 137 40% 1 21.04.2027 -
Fabricio Díaz San Lorenzo Actif 84 / 110 40% 2 20.04.2027 -
Jeremías Robledo Acosta Newell's Old Boys Actif 95 / 85 40% 1 20.04.2027 -
Felipe Igón Racing Club Actif 106 / 94 40% 1 19.04.2027 -
Francis Gomez Cardiff City Actif 104 / 118 40% 1 19.04.2027 -
Juan González Atlético Tucumán Actif 81 / 104 40% 2 18.04.2027 -
Leonardo Sosa Rosario Central Actif 81 / 97 40% 2 17.04.2027 -
Sebastián Alzate Once Caldas Actif 95 / 90 40% 1 17.04.2027 -
Emirhan Başyiğit Sivasspor Actif 116 / 121 40% 1 15.04.2027 -
Victor Hernandez Santa Fe Actif 123 / 131 40% 1 15.04.2027 -
Santiago Murillo Alianza Petrolera Actif 116 / 141 40% 1 06.04.2027 -
Yussif Saidu Zaragoza Actif 127 / 121 40% 1 05.04.2027 -
Benicio Romero Racing Club Actif 86 / 104 40% 1 04.04.2027 -
Thiago Sabella Banfield Actif 77 / 94 40% 1 02.04.2027 -
Franco Barrionuevo Racing Club Actif 84 / 106 40% 1 01.04.2027 -
Martín D'Aurizio Huracán Actif 86 / 87 40% 1 31.03.2027 -
Thiago Perruisset Boca Juniors Actif 87 / 88 40% 1 29.03.2027 -
Gavi Barcelona Actif 147 / 163 40% 6 17.03.2027 -
David Larrubia Málaga Actif 133 / 121 40% 3 17.03.2027 -
Jesús Vázquez Valencia Actif 131 / 127 40% 1 14.03.2027 -
Brian Gutiérrez Guadalajara Actif 135 / 133 40% 3 13.03.2027 -
Kevin Fulham Actif 150 / 146 40% 2 11.03.2027 -
Martim Neto Elche Actif 136 / 134 40% 1 11.03.2027 -
Roberto Fernández Braga Actif 134 / 140 40% 4 10.03.2027 -
Lewis Hall Newcastle United Actif 143 / 160 40% 1 10.03.2027 -
Deniz Ertaş Konyaspor Actif 121 / 128 40% 2 08.03.2027 -
Carlos Álvarez Club America Actif 137 / 135 40% 1 08.03.2027 -
Diego López Valencia Actif 130 / 143 40% 2 07.03.2027 -
Gerardo Díaz San Martín SJ Actif 76 / 98 40% 1 05.03.2027 -
Ilaix Moriba Celta Actif 147 / 151 40% 2 27.02.2027 -
Gonzalo Fulham Actif 139 / 149 40% 1 26.02.2027 -
Tino Livramento Newcastle United Actif 155 / 165 40% 1 22.02.2027 -
Carlos Forbs Club Brugge Actif 133 / 129 40% 1 21.02.2027 -
Jude Bellingham Real Madrid Actif 173 / 178 40% 3 20.02.2027 -
Pablo Torre Mallorca Actif 151 / 139 40% 2 15.02.2027 -
Xavi Simons Tottenham Actif 155 / 162 40% 1 14.02.2027 -
Alex Scott Bournemouth Actif 139 / 159 40% 1 11.02.2027 -
Mohamed-Ali Cho Hull City Actif 138 / 134 40% 1 03.02.2027 -
Dominik Szoboszlai Liverpool Actif 156 / 163 40% 1 30.12.2026 -
Iliman N'Diaye Everton Actif 149 / 158 40% 2 29.12.2026 -
Sorriso Famalicao Actif 130 / 121 40% 1 29.12.2026 -
Gabriel Martinelli Arsenal Actif 172 / 167 40% 2 28.12.2026 -
Troy Parrott Betis Actif 133 / 145 40% 1 28.12.2026 -
Kai Havertz Arsenal Actif 166 / 161 40% 3 27.12.2026 -
Lucas Varaldo Morelia Actif 129 / 106 40% 3 27.12.2026 -
Pau Víctor Braga Actif 149 / 128 40% 2 25.12.2026 -
William Saliba Arsenal Actif 167 / 174 40% 5 23.12.2026 -
Yehor Yarmoliuk Brentford Actif 150 / 149 40% 1 23.12.2026 -
Iván Martín Racing Santander Actif 138 / 145 40% 1 22.12.2026 -
Marc Guéhi Manchester City Actif 170 / 175 40% 1 22.12.2026 -
Jarrad Branthwaite Everton Actif 160 / 157 40% 1 20.12.2026 -
Rayan Cherki Manchester City Actif 157 / 167 40% 3 17.12.2026 -
Pedri Barcelona Actif 170 / 174 40% 4 17.12.2026 -
Marc Pubill Atlético Madrid Actif 136 / 145 40% 3 17.12.2026 -
Duk Atlas Actif 103 / 116 40% 1 17.12.2026 -
Rodrygo Real Madrid Actif 167 / 170 40% 2 14.12.2026 -
Georges Mikautadze Villarreal Actif 154 / 156 40% 1 14.12.2026 -
Carlos Romero Villarreal Actif 157 / 154 40% 3 12.12.2026 -
Cristian Uribe Monaco Actif 161 / 141 40% 4 11.12.2026 -
Aurélien Tchouaméni Real Madrid Actif 169 / 160 40% 1 11.12.2026 -
Boubacar Kamara Aston Villa Actif 154 / 154 40% 2 10.12.2026 -
Alexis Mac Allister Liverpool Actif 159 / 169 40% 2 06.12.2026 -
Sergi Cardona KAA Gent Actif 146 / 153 40% 1 06.12.2026 -
Sven Botman Newcastle United Actif 159 / 151 40% 1 04.12.2026 -
Tyler Adams Bournemouth Actif 159 / 153 40% 1 02.12.2026 -
Vitinha Paris Saint-Germain Actif 179 / 169 40% 1 02.12.2026 -
Ramiro Ruiz Rodríguez Atlético Tucumán Actif 133 / 134 40% 1 01.12.2026 -
Nicolò Tresoldi Club Brugge Actif 137 / 127 40% 1 30.11.2026 -
Isaac Romero Sevilla Actif 145 / 142 40% 1 30.11.2026 -
Arnau Martínez Valencia Actif 137 / 139 40% 2 29.11.2026 -
Matthijs de Ligt Manchester United Actif 162 / 160 40% 1 27.11.2026 -
João Neves Paris Saint-Germain Actif 167 / 164 40% 1 24.11.2026 -
Matheus Cunha Manchester United Actif 146 / 158 40% 3 21.11.2026 -
Hugo Ekitiké Liverpool Actif 160 / 171 40% 1 21.11.2026 -
Pedro Porro Tottenham Actif 152 / 142 40% 2 20.11.2026 -
José Ángel Carmona Sevilla Actif 140 / 152 40% 4 17.11.2026 -
Johnny Cardoso Atlético Madrid Actif 144 / 145 40% 1 17.11.2026 -
Yousef Salech Cardiff City Actif 127 / 124 40% 1 14.11.2026 -
Alexander Díaz Deportivo Riestra Actif 126 / 130 40% 1 14.11.2026 -
Fran García Betis Actif 152 / 150 40% 2 08.11.2026 -
Omar El Hilali Espanyol Actif 141 / 141 40% 2 05.11.2026 -
Martín Zubimendi Arsenal Actif 158 / 157 40% 1 04.11.2026 -
Jurriën Timber Arsenal Actif 169 / 167 40% 1 04.11.2026 -
Adrien Truffert Bournemouth Actif 147 / 142 40% 1 03.11.2026 -
Georginio Rutter Brighton Actif 152 / 156 40% 1 30.10.2026 -
Roberto de la Rosa Monterrey Actif 131 / 105 40% 1 30.10.2026 -
Ramón Terrats Getafe Actif 144 / 146 40% 1 28.10.2026 -
Levi Colwill Chelsea Actif 159 / 158 40% 2 26.10.2026 -
Lucien Agoumé Sevilla Actif 135 / 132 40% 1 26.10.2026 -
Ez Abde Betis Actif 152 / 139 40% 1 24.10.2026 -
Adam Wharton Crystal Palace Actif 143 / 144 40% 2 15.10.2026 -
Martín Ojeda Orlando City Actif 128 / 124 40% 1 08.10.2026 -
Eduardo Camavinga Real Madrid Actif 166 / 156 40% 2 07.10.2026 -
Achraf Hakimi Paris Saint-Germain Actif 173 / 177 40% 1 19.09.2026 -
Ibrahima Konaté Real Madrid Actif 168 / 150 40% 1 19.09.2026 -
James Bacca La Equidad Actif 114 / 139 40% 1 14.09.2026 -
Antonio Blanco Alavés Actif 134 / 136 40% 1 08.09.2026 -
Juan Fernándes Pinto Almagro Actif 89 / 99 40% 1 01.08.2026 -